sensor_id;sensor_type;location;lat;lon;timestamp;P1;durP1;ratioP1;P2;durP2;ratioP2
7875;SDS011;69649;53.712;9.680;2024-02-21T00:00:41;32.37;;;12.73;;
7875;SDS011;69649;53.712;9.680;2024-02-21T00:03:07;27.53;;;12.83;;
7875;SDS011;69649;53.712;9.680;2024-02-21T00:05:33;9.40;;;6.60;;
7875;SDS011;69649;53.712;9.680;2024-02-21T00:07:59;24.73;;;11.47;;
7875;SDS011;69649;53.712;9.680;2024-02-21T00:10:25;25.17;;;11.30;;
7875;SDS011;69649;53.712;9.680;2024-02-21T00:12:51;24.63;;;11.50;;
7875;SDS011;69649;53.712;9.680;2024-02-21T00:15:17;27.23;;;12.43;;
7875;SDS011;69649;53.712;9.680;2024-02-21T00:17:43;28.73;;;12.27;;
7875;SDS011;69649;53.712;9.680;2024-02-21T00:20:10;28.10;;;12.20;;
7875;SDS011;69649;53.712;9.680;2024-02-21T00:22:36;8.70;;;5.63;;
7875;SDS011;69649;53.712;9.680;2024-02-21T00:25:02;24.00;;;11.83;;
7875;SDS011;69649;53.712;9.680;2024-02-21T00:27:29;22.57;;;11.17;;
7875;SDS011;69649;53.712;9.680;2024-02-21T00:29:54;27.37;;;13.77;;
7875;SDS011;69649;53.712;9.680;2024-02-21T00:32:20;30.07;;;13.13;;
7875;SDS011;69649;53.712;9.680;2024-02-21T00:34:46;19.17;;;10.47;;
7875;SDS011;69649;53.712;9.680;2024-02-21T00:37:12;24.57;;;12.40;;
7875;SDS011;69649;53.712;9.680;2024-02-21T00:39:37;19.33;;;10.60;;
7875;SDS011;69649;53.712;9.680;2024-02-21T00:42:03;23.10;;;11.67;;
7875;SDS011;69649;53.712;9.680;2024-02-21T00:44:30;22.70;;;11.70;;
7875;SDS011;69649;53.712;9.680;2024-02-21T00:46:55;22.17;;;11.80;;
7875;SDS011;69649;53.712;9.680;2024-02-21T00:49:21;18.93;;;8.80;;
7875;SDS011;69649;53.712;9.680;2024-02-21T00:51:47;18.43;;;10.30;;
7875;SDS011;69649;53.712;9.680;2024-02-21T00:54:13;21.73;;;6.93;;
7875;SDS011;69649;53.712;9.680;2024-02-21T00:56:39;29.90;;;12.27;;
7875;SDS011;69649;53.712;9.680;2024-02-21T00:59:04;25.50;;;12.37;;
7875;SDS011;69649;53.712;9.680;2024-02-21T01:01:30;26.17;;;11.67;;
7875;SDS011;69649;53.712;9.680;2024-02-21T01:03:56;18.30;;;8.63;;
7875;SDS011;69649;53.712;9.680;2024-02-21T01:06:22;26.63;;;11.90;;
7875;SDS011;69649;53.712;9.680;2024-02-21T01:08:48;18.33;;;9.50;;
7875;SDS011;69649;53.712;9.680;2024-02-21T01:11:15;29.10;;;12.70;;
7875;SDS011;69649;53.712;9.680;2024-02-21T01:13:41;10.40;;;7.07;;
7875;SDS011;69649;53.712;9.680;2024-02-21T01:16:06;20.73;;;10.73;;
7875;SDS011;69649;53.712;9.680;2024-02-21T01:18:39;24.90;;;12.17;;
7875;SDS011;69649;53.712;9.680;2024-02-21T01:21:05;18.97;;;9.93;;
7875;SDS011;69649;53.712;9.680;2024-02-21T01:23:36;16.07;;;8.60;;
7875;SDS011;69649;53.712;9.680;2024-02-21T01:26:00;24.80;;;11.03;;
7875;SDS011;69649;53.712;9.680;2024-02-21T01:28:26;26.97;;;10.80;;
7875;SDS011;69649;53.712;9.680;2024-02-21T01:30:52;19.83;;;9.77;;
7875;SDS011;69649;53.712;9.680;2024-02-21T01:33:17;23.20;;;11.50;;
7875;SDS011;69649;53.712;9.680;2024-02-21T01:35:44;22.67;;;11.07;;
7875;SDS011;69649;53.712;9.680;2024-02-21T01:38:10;23.03;;;11.70;;
7875;SDS011;69649;53.712;9.680;2024-02-21T01:40:37;13.47;;;8.53;;
7875;SDS011;69649;53.712;9.680;2024-02-21T01:43:03;20.63;;;11.30;;
7875;SDS011;69649;53.712;9.680;2024-02-21T01:45:29;13.40;;;8.40;;
7875;SDS011;69649;53.712;9.680;2024-02-21T01:47:55;20.93;;;11.17;;
7875;SDS011;69649;53.712;9.680;2024-02-21T01:50:21;22.93;;;11.70;;
7875;SDS011;69649;53.712;9.680;2024-02-21T01:52:48;18.07;;;10.20;;
7875;SDS011;69649;53.712;9.680;2024-02-21T01:55:15;12.07;;;6.17;;
7875;SDS011;69649;53.712;9.680;2024-02-21T01:57:42;13.33;;;8.37;;
7875;SDS011;69649;53.712;9.680;2024-02-21T02:00:11;13.63;;;9.13;;
7875;SDS011;69649;53.712;9.680;2024-02-21T02:02:38;13.10;;;7.83;;
7875;SDS011;69649;53.712;9.680;2024-02-21T02:05:06;21.63;;;10.63;;
7875;SDS011;69649;53.712;9.680;2024-02-21T02:07:33;25.37;;;10.57;;
7875;SDS011;69649;53.712;9.680;2024-02-21T02:09:59;22.90;;;11.47;;
7875;SDS011;69649;53.712;9.680;2024-02-21T02:12:25;24.13;;;11.40;;
7875;SDS011;69649;53.712;9.680;2024-02-21T02:14:57;21.50;;;11.73;;
7875;SDS011;69649;53.712;9.680;2024-02-21T02:17:24;23.17;;;11.83;;
7875;SDS011;69649;53.712;9.680;2024-02-21T02:19:50;23.47;;;11.83;;
7875;SDS011;69649;53.712;9.680;2024-02-21T02:22:17;19.30;;;10.17;;
7875;SDS011;69649;53.712;9.680;2024-02-21T02:24:45;17.27;;;10.10;;
7875;SDS011;69649;53.712;9.680;2024-02-21T02:27:11;22.83;;;10.87;;
7875;SDS011;69649;53.712;9.680;2024-02-21T02:29:37;21.13;;;9.47;;
7875;SDS011;69649;53.712;9.680;2024-02-21T02:32:03;20.00;;;10.90;;
7875;SDS011;69649;53.712;9.680;2024-02-21T02:34:29;23.00;;;11.23;;
7875;SDS011;69649;53.712;9.680;2024-02-21T02:36:56;19.13;;;10.27;;
7875;SDS011;69649;53.712;9.680;2024-02-21T02:39:21;23.43;;;10.70;;
7875;SDS011;69649;53.712;9.680;2024-02-21T02:41:47;24.50;;;12.10;;
7875;SDS011;69649;53.712;9.680;2024-02-21T02:44:13;17.47;;;11.33;;
7875;SDS011;69649;53.712;9.680;2024-02-21T02:46:41;23.33;;;11.37;;
7875;SDS011;69649;53.712;9.680;2024-02-21T02:49:07;18.23;;;10.83;;
7875;SDS011;69649;53.712;9.680;2024-02-21T02:51:33;20.23;;;10.93;;
7875;SDS011;69649;53.712;9.680;2024-02-21T02:53:59;26.07;;;13.13;;
7875;SDS011;69649;53.712;9.680;2024-02-21T02:56:24;25.13;;;13.13;;
7875;SDS011;69649;53.712;9.680;2024-02-21T02:58:50;23.77;;;13.27;;
7875;SDS011;69649;53.712;9.680;2024-02-21T03:01:16;23.10;;;12.17;;
7875;SDS011;69649;53.712;9.680;2024-02-21T03:03:42;18.07;;;9.33;;
7875;SDS011;69649;53.712;9.680;2024-02-21T03:06:07;27.33;;;13.23;;
7875;SDS011;69649;53.712;9.680;2024-02-21T03:08:33;24.07;;;13.43;;
7875;SDS011;69649;53.712;9.680;2024-02-21T03:10:59;27.47;;;13.10;;
7875;SDS011;69649;53.712;9.680;2024-02-21T03:13:25;21.37;;;12.43;;
7875;SDS011;69649;53.712;9.680;2024-02-21T03:15:51;23.10;;;12.17;;
7875;SDS011;69649;53.712;9.680;2024-02-21T03:18:17;20.73;;;12.03;;
7875;SDS011;69649;53.712;9.680;2024-02-21T03:20:43;19.80;;;9.37;;
7875;SDS011;69649;53.712;9.680;2024-02-21T03:23:08;25.77;;;11.77;;
7875;SDS011;69649;53.712;9.680;2024-02-21T03:25:34;14.13;;;7.53;;
7875;SDS011;69649;53.712;9.680;2024-02-21T03:28:00;26.93;;;11.63;;
7875;SDS011;69649;53.712;9.680;2024-02-21T03:30:26;20.97;;;10.90;;
7875;SDS011;69649;53.712;9.680;2024-02-21T03:32:52;18.53;;;10.77;;
7875;SDS011;69649;53.712;9.680;2024-02-21T03:35:17;18.00;;;10.20;;
7875;SDS011;69649;53.712;9.680;2024-02-21T03:37:44;15.23;;;8.67;;
7875;SDS011;69649;53.712;9.680;2024-02-21T03:40:11;24.57;;;13.20;;
7875;SDS011;69649;53.712;9.680;2024-02-21T03:42:37;21.60;;;12.20;;
7875;SDS011;69649;53.712;9.680;2024-02-21T03:45:04;19.87;;;9.27;;
7875;SDS011;69649;53.712;9.680;2024-02-21T03:47:30;18.47;;;9.90;;
7875;SDS011;69649;53.712;9.680;2024-02-21T03:49:56;12.63;;;8.03;;
7875;SDS011;69649;53.712;9.680;2024-02-21T03:52:22;16.50;;;8.40;;
7875;SDS011;69649;53.712;9.680;2024-02-21T03:54:47;22.13;;;11.33;;
7875;SDS011;69649;53.712;9.680;2024-02-21T03:57:13;13.67;;;8.23;;
7875;SDS011;69649;53.712;9.680;2024-02-21T03:59:39;15.23;;;7.80;;
7875;SDS011;69649;53.712;9.680;2024-02-21T04:02:05;19.57;;;10.27;;
7875;SDS011;69649;53.712;9.680;2024-02-21T04:04:34;19.33;;;8.93;;
7875;SDS011;69649;53.712;9.680;2024-02-21T04:07:02;18.27;;;10.13;;
7875;SDS011;69649;53.712;9.680;2024-02-21T04:09:30;14.97;;;10.07;;
7875;SDS011;69649;53.712;9.680;2024-02-21T04:11:56;10.10;;;5.97;;
7875;SDS011;69649;53.712;9.680;2024-02-21T04:14:21;20.43;;;8.87;;
7875;SDS011;69649;53.712;9.680;2024-02-21T04:16:47;17.43;;;8.17;;
7875;SDS011;69649;53.712;9.680;2024-02-21T04:19:13;14.07;;;9.53;;
7875;SDS011;69649;53.712;9.680;2024-02-21T04:21:39;19.77;;;9.70;;
7875;SDS011;69649;53.712;9.680;2024-02-21T04:24:05;15.07;;;9.27;;
7875;SDS011;69649;53.712;9.680;2024-02-21T04:26:31;15.57;;;9.37;;
7875;SDS011;69649;53.712;9.680;2024-02-21T04:28:56;14.63;;;9.27;;
7875;SDS011;69649;53.712;9.680;2024-02-21T04:31:22;21.10;;;10.30;;
7875;SDS011;69649;53.712;9.680;2024-02-21T04:33:48;14.97;;;8.93;;
7875;SDS011;69649;53.712;9.680;2024-02-21T04:36:14;18.53;;;9.60;;
7875;SDS011;69649;53.712;9.680;2024-02-21T04:38:40;13.30;;;9.13;;
7875;SDS011;69649;53.712;9.680;2024-02-21T04:41:06;12.33;;;8.40;;
7875;SDS011;69649;53.712;9.680;2024-02-21T04:43:32;12.80;;;7.80;;
7875;SDS011;69649;53.712;9.680;2024-02-21T04:45:58;12.53;;;8.80;;
7875;SDS011;69649;53.712;9.680;2024-02-21T04:48:23;12.00;;;8.30;;
7875;SDS011;69649;53.712;9.680;2024-02-21T04:50:49;12.83;;;9.57;;
7875;SDS011;69649;53.712;9.680;2024-02-21T04:53:15;15.83;;;8.83;;
7875;SDS011;69649;53.712;9.680;2024-02-21T04:55:41;10.70;;;7.13;;
7875;SDS011;69649;53.712;9.680;2024-02-21T04:58:07;9.67;;;7.00;;
7875;SDS011;69649;53.712;9.680;2024-02-21T05:00:33;8.97;;;6.40;;
7875;SDS011;69649;53.712;9.680;2024-02-21T05:02:59;10.20;;;7.27;;
7875;SDS011;69649;53.712;9.680;2024-02-21T05:05:25;14.00;;;7.13;;
7875;SDS011;69649;53.712;9.680;2024-02-21T05:07:51;11.23;;;7.50;;
7875;SDS011;69649;53.712;9.680;2024-02-21T05:10:16;10.63;;;5.87;;
7875;SDS011;69649;53.712;9.680;2024-02-21T05:12:43;14.57;;;6.03;;
7875;SDS011;69649;53.712;9.680;2024-02-21T05:15:09;9.13;;;5.80;;
7875;SDS011;69649;53.712;9.680;2024-02-21T05:17:35;9.73;;;5.63;;
7875;SDS011;69649;53.712;9.680;2024-02-21T05:20:01;6.30;;;4.77;;
7875;SDS011;69649;53.712;9.680;2024-02-21T05:22:27;8.83;;;5.53;;
7875;SDS011;69649;53.712;9.680;2024-02-21T05:24:53;8.63;;;5.50;;
7875;SDS011;69649;53.712;9.680;2024-02-21T05:27:19;7.93;;;5.87;;
7875;SDS011;69649;53.712;9.680;2024-02-21T05:29:45;7.60;;;6.07;;
7875;SDS011;69649;53.712;9.680;2024-02-21T05:32:11;9.77;;;6.47;;
7875;SDS011;69649;53.712;9.680;2024-02-21T05:34:36;10.13;;;6.63;;
7875;SDS011;69649;53.712;9.680;2024-02-21T05:37:02;10.80;;;6.37;;
7875;SDS011;69649;53.712;9.680;2024-02-21T05:39:28;6.40;;;5.17;;
7875;SDS011;69649;53.712;9.680;2024-02-21T05:41:54;7.90;;;5.03;;
7875;SDS011;69649;53.712;9.680;2024-02-21T05:44:20;8.83;;;5.90;;
7875;SDS011;69649;53.712;9.680;2024-02-21T05:46:47;10.43;;;6.03;;
7875;SDS011;69649;53.712;9.680;2024-02-21T05:49:13;6.93;;;5.73;;
7875;SDS011;69649;53.712;9.680;2024-02-21T05:51:39;6.10;;;4.40;;
7875;SDS011;69649;53.712;9.680;2024-02-21T05:54:05;9.43;;;5.70;;
7875;SDS011;69649;53.712;9.680;2024-02-21T05:56:32;7.07;;;4.93;;
7875;SDS011;69649;53.712;9.680;2024-02-21T05:58:58;7.47;;;5.43;;
7875;SDS011;69649;53.712;9.680;2024-02-21T06:01:24;5.70;;;5.10;;
7875;SDS011;69649;53.712;9.680;2024-02-21T06:03:49;4.83;;;4.33;;
7875;SDS011;69649;53.712;9.680;2024-02-21T06:06:15;7.33;;;5.40;;
7875;SDS011;69649;53.712;9.680;2024-02-21T06:08:41;6.30;;;4.60;;
7875;SDS011;69649;53.712;9.680;2024-02-21T06:11:07;4.63;;;4.00;;
7875;SDS011;69649;53.712;9.680;2024-02-21T06:13:33;5.60;;;4.40;;
7875;SDS011;69649;53.712;9.680;2024-02-21T06:15:59;6.37;;;4.00;;
7875;SDS011;69649;53.712;9.680;2024-02-21T06:18:24;4.00;;;3.60;;
7875;SDS011;69649;53.712;9.680;2024-02-21T06:20:50;5.93;;;4.10;;
7875;SDS011;69649;53.712;9.680;2024-02-21T06:23:16;5.57;;;4.37;;
7875;SDS011;69649;53.712;9.680;2024-02-21T06:25:42;6.27;;;4.13;;
7875;SDS011;69649;53.712;9.680;2024-02-21T06:28:08;7.87;;;4.53;;
7875;SDS011;69649;53.712;9.680;2024-02-21T06:30:34;6.47;;;4.40;;
7875;SDS011;69649;53.712;9.680;2024-02-21T06:33:00;6.60;;;4.53;;
7875;SDS011;69649;53.712;9.680;2024-02-21T06:35:28;5.33;;;4.00;;
7875;SDS011;69649;53.712;9.680;2024-02-21T06:37:54;6.00;;;4.00;;
7875;SDS011;69649;53.712;9.680;2024-02-21T06:40:20;4.50;;;4.03;;
7875;SDS011;69649;53.712;9.680;2024-02-21T06:42:47;4.93;;;3.60;;
7875;SDS011;69649;53.712;9.680;2024-02-21T06:45:14;5.90;;;4.03;;
7875;SDS011;69649;53.712;9.680;2024-02-21T06:47:40;6.10;;;4.33;;
7875;SDS011;69649;53.712;9.680;2024-02-21T06:50:06;5.60;;;3.77;;
7875;SDS011;69649;53.712;9.680;2024-02-21T06:52:34;3.83;;;3.43;;
7875;SDS011;69649;53.712;9.680;2024-02-21T06:55:00;5.50;;;4.03;;
7875;SDS011;69649;53.712;9.680;2024-02-21T06:57:26;5.70;;;4.43;;
7875;SDS011;69649;53.712;9.680;2024-02-21T06:59:51;5.53;;;3.77;;
7875;SDS011;69649;53.712;9.680;2024-02-21T07:02:17;7.47;;;4.33;;
7875;SDS011;69649;53.712;9.680;2024-02-21T07:04:43;10.47;;;4.33;;
7875;SDS011;69649;53.712;9.680;2024-02-21T07:07:09;6.40;;;4.30;;
7875;SDS011;69649;53.712;9.680;2024-02-21T07:09:35;11.57;;;4.13;;
7875;SDS011;69649;53.712;9.680;2024-02-21T07:12:01;3.47;;;3.13;;
7875;SDS011;69649;53.712;9.680;2024-02-21T07:14:30;5.90;;;4.70;;
7875;SDS011;69649;53.712;9.680;2024-02-21T07:16:57;8.60;;;4.47;;
7875;SDS011;69649;53.712;9.680;2024-02-21T07:19:23;9.47;;;4.83;;
7875;SDS011;69649;53.712;9.680;2024-02-21T07:21:49;13.70;;;4.37;;
7875;SDS011;69649;53.712;9.680;2024-02-21T07:24:15;8.77;;;3.90;;
7875;SDS011;69649;53.712;9.680;2024-02-21T07:26:41;14.57;;;4.27;;
7875;SDS011;69649;53.712;9.680;2024-02-21T07:29:11;9.90;;;4.07;;
7875;SDS011;69649;53.712;9.680;2024-02-21T07:31:42;9.60;;;4.80;;
7875;SDS011;69649;53.712;9.680;2024-02-21T07:34:09;15.47;;;4.70;;
7875;SDS011;69649;53.712;9.680;2024-02-21T07:36:35;9.70;;;3.87;;
7875;SDS011;69649;53.712;9.680;2024-02-21T07:39:03;10.27;;;3.73;;
7875;SDS011;69649;53.712;9.680;2024-02-21T07:41:30;15.90;;;3.80;;
7875;SDS011;69649;53.712;9.680;2024-02-21T07:43:55;12.33;;;4.33;;
7875;SDS011;69649;53.712;9.680;2024-02-21T07:46:22;16.73;;;4.40;;
7875;SDS011;69649;53.712;9.680;2024-02-21T07:48:48;12.67;;;4.13;;
7875;SDS011;69649;53.712;9.680;2024-02-21T07:51:14;10.40;;;3.80;;
7875;SDS011;69649;53.712;9.680;2024-02-21T07:53:41;12.33;;;4.33;;
7875;SDS011;69649;53.712;9.680;2024-02-21T07:56:09;12.33;;;4.07;;
7875;SDS011;69649;53.712;9.680;2024-02-21T07:58:37;9.17;;;3.33;;
7875;SDS011;69649;53.712;9.680;2024-02-21T08:01:03;13.10;;;4.30;;
7875;SDS011;69649;53.712;9.680;2024-02-21T08:03:29;9.17;;;3.90;;
7875;SDS011;69649;53.712;9.680;2024-02-21T08:05:55;14.83;;;3.63;;
7875;SDS011;69649;53.712;9.680;2024-02-21T08:08:20;12.53;;;4.13;;
7875;SDS011;69649;53.712;9.680;2024-02-21T08:10:48;13.43;;;3.70;;
7875;SDS011;69649;53.712;9.680;2024-02-21T08:13:14;14.23;;;5.47;;
7875;SDS011;69649;53.712;9.680;2024-02-21T08:15:40;8.43;;;3.13;;
7875;SDS011;69649;53.712;9.680;2024-02-21T08:18:07;16.67;;;4.37;;
7875;SDS011;69649;53.712;9.680;2024-02-21T08:20:33;15.90;;;4.23;;
7875;SDS011;69649;53.712;9.680;2024-02-21T08:22:59;15.23;;;3.40;;
7875;SDS011;69649;53.712;9.680;2024-02-21T08:25:26;11.87;;;3.27;;
7875;SDS011;69649;53.712;9.680;2024-02-21T08:27:53;19.77;;;3.77;;
7875;SDS011;69649;53.712;9.680;2024-02-21T08:30:21;8.83;;;3.60;;
7875;SDS011;69649;53.712;9.680;2024-02-21T08:32:46;16.67;;;3.20;;
7875;SDS011;69649;53.712;9.680;2024-02-21T08:35:12;13.60;;;4.80;;
7875;SDS011;69649;53.712;9.680;2024-02-21T08:37:38;13.83;;;4.67;;
7875;SDS011;69649;53.712;9.680;2024-02-21T08:40:04;8.50;;;2.90;;
7875;SDS011;69649;53.712;9.680;2024-02-21T08:42:32;10.27;;;2.57;;
7875;SDS011;69649;53.712;9.680;2024-02-21T08:44:58;12.43;;;3.70;;
7875;SDS011;69649;53.712;9.680;2024-02-21T08:47:23;8.77;;;3.20;;
7875;SDS011;69649;53.712;9.680;2024-02-21T08:49:49;10.77;;;3.03;;
7875;SDS011;69649;53.712;9.680;2024-02-21T08:52:15;11.47;;;3.03;;
7875;SDS011;69649;53.712;9.680;2024-02-21T08:54:41;10.33;;;3.23;;
7875;SDS011;69649;53.712;9.680;2024-02-21T08:57:07;14.03;;;3.60;;
7875;SDS011;69649;53.712;9.680;2024-02-21T08:59:32;16.07;;;3.90;;
7875;SDS011;69649;53.712;9.680;2024-02-21T09:01:58;8.63;;;4.03;;
7875;SDS011;69649;53.712;9.680;2024-02-21T09:04:25;11.90;;;3.60;;
7875;SDS011;69649;53.712;9.680;2024-02-21T09:06:50;17.53;;;3.87;;
7875;SDS011;69649;53.712;9.680;2024-02-21T09:09:18;17.80;;;3.77;;
7875;SDS011;69649;53.712;9.680;2024-02-21T09:11:43;11.07;;;3.30;;
7875;SDS011;69649;53.712;9.680;2024-02-21T09:14:09;11.47;;;3.20;;
7875;SDS011;69649;53.712;9.680;2024-02-21T09:16:35;12.10;;;3.03;;
7875;SDS011;69649;53.712;9.680;2024-02-21T09:19:01;7.57;;;3.10;;
7875;SDS011;69649;53.712;9.680;2024-02-21T09:21:27;17.50;;;3.70;;
7875;SDS011;69649;53.712;9.680;2024-02-21T09:23:53;13.30;;;4.10;;
7875;SDS011;69649;53.712;9.680;2024-02-21T09:26:20;13.37;;;3.23;;
7875;SDS011;69649;53.712;9.680;2024-02-21T09:28:45;7.17;;;2.87;;
7875;SDS011;69649;53.712;9.680;2024-02-21T09:31:11;9.93;;;3.43;;
7875;SDS011;69649;53.712;9.680;2024-02-21T09:33:37;13.17;;;3.83;;
7875;SDS011;69649;53.712;9.680;2024-02-21T09:36:03;9.27;;;3.70;;
7875;SDS011;69649;53.712;9.680;2024-02-21T09:38:31;12.37;;;3.77;;
7875;SDS011;69649;53.712;9.680;2024-02-21T09:41:05;11.77;;;3.50;;
7875;SDS011;69649;53.712;9.680;2024-02-21T09:43:43;9.57;;;3.87;;
7875;SDS011;69649;53.712;9.680;2024-02-21T09:46:15;10.47;;;3.67;;
7875;SDS011;69649;53.712;9.680;2024-02-21T09:54:02;8.17;;;3.73;;
7875;SDS011;69649;53.712;9.680;2024-02-21T09:56:30;8.90;;;3.47;;
7875;SDS011;69649;53.712;9.680;2024-02-21T09:58:55;6.93;;;3.93;;
7875;SDS011;69649;53.712;9.680;2024-02-21T10:01:22;11.20;;;3.73;;
7875;SDS011;69649;53.712;9.680;2024-02-21T10:03:48;11.57;;;4.00;;
7875;SDS011;69649;53.712;9.680;2024-02-21T10:06:15;6.17;;;3.60;;
7875;SDS011;69649;53.712;9.680;2024-02-21T10:08:40;9.47;;;4.43;;
7875;SDS011;69649;53.712;9.680;2024-02-21T10:11:06;8.87;;;4.43;;
7875;SDS011;69649;53.712;9.680;2024-02-21T10:13:34;8.43;;;3.97;;
7875;SDS011;69649;53.712;9.680;2024-02-21T10:16:03;8.23;;;3.80;;
7875;SDS011;69649;53.712;9.680;2024-02-21T10:18:30;5.07;;;4.43;;
7875;SDS011;69649;53.712;9.680;2024-02-21T10:21:02;3.87;;;3.53;;
7875;SDS011;69649;53.712;9.680;2024-02-21T10:23:41;6.10;;;3.63;;
7875;SDS011;69649;53.712;9.680;2024-02-21T10:26:12;5.47;;;2.97;;
7875;SDS011;69649;53.712;9.680;2024-02-21T10:28:38;4.47;;;3.63;;
7875;SDS011;69649;53.712;9.680;2024-02-21T10:31:06;4.13;;;3.73;;
7875;SDS011;69649;53.712;9.680;2024-02-21T10:33:32;5.83;;;3.40;;
7875;SDS011;69649;53.712;9.680;2024-02-21T10:36:05;5.03;;;3.60;;
7875;SDS011;69649;53.712;9.680;2024-02-21T10:38:33;4.90;;;3.63;;
7875;SDS011;69649;53.712;9.680;2024-02-21T10:40:59;7.30;;;3.30;;
7875;SDS011;69649;53.712;9.680;2024-02-21T10:43:27;5.73;;;3.73;;
7875;SDS011;69649;53.712;9.680;2024-02-21T10:45:56;4.40;;;3.13;;
7875;SDS011;69649;53.712;9.680;2024-02-21T10:48:28;4.80;;;4.07;;
7875;SDS011;69649;53.712;9.680;2024-02-21T10:56:28;7.23;;;5.23;;
7875;SDS011;69649;53.712;9.680;2024-02-21T10:58:57;6.23;;;4.63;;
7875;SDS011;69649;53.712;9.680;2024-02-21T11:01:23;8.63;;;5.37;;
7875;SDS011;69649;53.712;9.680;2024-02-21T11:03:52;8.33;;;6.17;;
7875;SDS011;69649;53.712;9.680;2024-02-21T11:06:20;10.70;;;6.00;;
7875;SDS011;69649;53.712;9.680;2024-02-21T11:08:47;10.57;;;6.63;;
7875;SDS011;69649;53.712;9.680;2024-02-21T11:11:14;9.27;;;6.03;;
7875;SDS011;69649;53.712;9.680;2024-02-21T11:13:45;11.40;;;5.87;;
7875;SDS011;69649;53.712;9.680;2024-02-21T11:16:12;9.77;;;6.80;;
7875;SDS011;69649;53.712;9.680;2024-02-21T11:18:41;13.67;;;8.07;;
7875;SDS011;69649;53.712;9.680;2024-02-21T11:21:07;12.47;;;7.90;;
7875;SDS011;69649;53.712;9.680;2024-02-21T11:23:32;15.97;;;8.23;;
7875;SDS011;69649;53.712;9.680;2024-02-21T11:26:10;11.13;;;7.00;;
7875;SDS011;69649;53.712;9.680;2024-02-21T11:28:40;13.23;;;7.50;;
7875;SDS011;69649;53.712;9.680;2024-02-21T11:31:13;14.13;;;9.00;;
7875;SDS011;69649;53.712;9.680;2024-02-21T11:33:40;14.00;;;8.03;;
7875;SDS011;69649;53.712;9.680;2024-02-21T11:36:09;15.23;;;8.00;;
7875;SDS011;69649;53.712;9.680;2024-02-21T11:38:35;16.00;;;8.07;;
7875;SDS011;69649;53.712;9.680;2024-02-21T11:41:01;14.40;;;8.47;;
7875;SDS011;69649;53.712;9.680;2024-02-21T11:43:28;13.27;;;8.27;;
7875;SDS011;69649;53.712;9.680;2024-02-21T11:46:00;13.17;;;7.97;;
7875;SDS011;69649;53.712;9.680;2024-02-21T11:48:27;17.50;;;8.07;;
7875;SDS011;69649;53.712;9.680;2024-02-21T11:50:54;17.70;;;9.73;;
7875;SDS011;69649;53.712;9.680;2024-02-21T11:53:20;18.07;;;10.10;;
7875;SDS011;69649;53.712;9.680;2024-02-21T11:55:46;19.23;;;9.27;;
7875;SDS011;69649;53.712;9.680;2024-02-21T11:58:12;15.47;;;8.97;;
7875;SDS011;69649;53.712;9.680;2024-02-21T12:00:38;16.80;;;9.63;;
7875;SDS011;69649;53.712;9.680;2024-02-21T12:03:04;20.43;;;10.10;;
7875;SDS011;69649;53.712;9.680;2024-02-21T12:05:31;23.43;;;11.07;;
7875;SDS011;69649;53.712;9.680;2024-02-21T12:07:57;9.43;;;6.07;;
7875;SDS011;69649;53.712;9.680;2024-02-21T12:10:23;17.43;;;10.43;;
7875;SDS011;69649;53.712;9.680;2024-02-21T12:12:51;7.50;;;5.87;;
7875;SDS011;69649;53.712;9.680;2024-02-21T12:15:18;17.40;;;10.23;;
7875;SDS011;69649;53.712;9.680;2024-02-21T12:17:45;15.83;;;9.37;;
7875;SDS011;69649;53.712;9.680;2024-02-21T12:20:10;14.23;;;8.30;;
7875;SDS011;69649;53.712;9.680;2024-02-21T12:22:41;16.60;;;9.93;;
7875;SDS011;69649;53.712;9.680;2024-02-21T12:25:15;13.87;;;9.67;;
7875;SDS011;69649;53.712;9.680;2024-02-21T12:27:37;15.63;;;8.77;;
7875;SDS011;69649;53.712;9.680;2024-02-21T12:30:03;16.30;;;9.37;;
7875;SDS011;69649;53.712;9.680;2024-02-21T12:32:31;19.27;;;9.40;;
7875;SDS011;69649;53.712;9.680;2024-02-21T12:34:57;14.67;;;8.97;;
7875;SDS011;69649;53.712;9.680;2024-02-21T12:37:23;18.60;;;9.33;;
7875;SDS011;69649;53.712;9.680;2024-02-21T12:39:49;16.13;;;9.23;;
7875;SDS011;69649;53.712;9.680;2024-02-21T12:42:15;15.20;;;10.13;;
7875;SDS011;69649;53.712;9.680;2024-02-21T12:44:42;16.90;;;10.63;;
7875;SDS011;69649;53.712;9.680;2024-02-21T12:47:08;14.17;;;10.23;;
7875;SDS011;69649;53.712;9.680;2024-02-21T12:49:34;13.37;;;6.67;;
7875;SDS011;69649;53.712;9.680;2024-02-21T12:52:00;16.93;;;9.90;;
7875;SDS011;69649;53.712;9.680;2024-02-21T12:54:26;20.93;;;11.83;;
7875;SDS011;69649;53.712;9.680;2024-02-21T12:56:51;11.57;;;7.17;;
7875;SDS011;69649;53.712;9.680;2024-02-21T12:59:17;17.90;;;11.67;;
7875;SDS011;69649;53.712;9.680;2024-02-21T13:01:43;22.83;;;11.33;;
7875;SDS011;69649;53.712;9.680;2024-02-21T13:04:09;14.73;;;10.37;;
7875;SDS011;69649;53.712;9.680;2024-02-21T13:06:34;21.03;;;12.07;;
7875;SDS011;69649;53.712;9.680;2024-02-21T13:09:02;19.13;;;12.30;;
7875;SDS011;69649;53.712;9.680;2024-02-21T13:11:29;20.80;;;12.27;;
7875;SDS011;69649;53.712;9.680;2024-02-21T13:13:56;19.07;;;11.33;;
7875;SDS011;69649;53.712;9.680;2024-02-21T13:16:23;20.67;;;11.00;;
7875;SDS011;69649;53.712;9.680;2024-02-21T13:18:48;19.50;;;11.53;;
7875;SDS011;69649;53.712;9.680;2024-02-21T13:21:14;19.17;;;10.77;;
7875;SDS011;69649;53.712;9.680;2024-02-21T13:23:40;18.87;;;10.63;;
7875;SDS011;69649;53.712;9.680;2024-02-21T13:26:05;20.37;;;11.20;;
7875;SDS011;69649;53.712;9.680;2024-02-21T13:28:31;20.17;;;11.20;;
7875;SDS011;69649;53.712;9.680;2024-02-21T13:30:57;18.80;;;10.00;;
7875;SDS011;69649;53.712;9.680;2024-02-21T13:33:23;18.43;;;10.00;;
7875;SDS011;69649;53.712;9.680;2024-02-21T13:35:48;18.67;;;10.67;;
7875;SDS011;69649;53.712;9.680;2024-02-21T13:38:14;13.90;;;9.30;;
7875;SDS011;69649;53.712;9.680;2024-02-21T13:40:41;18.93;;;11.33;;
7875;SDS011;69649;53.712;9.680;2024-02-21T13:43:07;12.67;;;8.53;;
7875;SDS011;69649;53.712;9.680;2024-02-21T13:45:33;17.67;;;10.30;;
7875;SDS011;69649;53.712;9.680;2024-02-21T13:47:59;18.33;;;10.03;;
7875;SDS011;69649;53.712;9.680;2024-02-21T13:50:29;20.13;;;10.50;;
7875;SDS011;69649;53.712;9.680;2024-02-21T13:52:54;12.53;;;8.07;;
7875;SDS011;69649;53.712;9.680;2024-02-21T13:55:20;13.33;;;8.40;;
7875;SDS011;69649;53.712;9.680;2024-02-21T13:57:47;21.97;;;10.37;;
7875;SDS011;69649;53.712;9.680;2024-02-21T14:00:13;23.30;;;8.97;;
7875;SDS011;69649;53.712;9.680;2024-02-21T14:02:40;15.63;;;8.87;;
7875;SDS011;69649;53.712;9.680;2024-02-21T14:05:06;17.80;;;9.67;;
7875;SDS011;69649;53.712;9.680;2024-02-21T14:07:32;17.57;;;9.73;;
7875;SDS011;69649;53.712;9.680;2024-02-21T14:10:00;16.50;;;10.07;;
7875;SDS011;69649;53.712;9.680;2024-02-21T14:12:26;15.17;;;9.13;;
7875;SDS011;69649;53.712;9.680;2024-02-21T14:14:52;16.07;;;9.03;;
7875;SDS011;69649;53.712;9.680;2024-02-21T14:17:18;16.57;;;7.90;;
7875;SDS011;69649;53.712;9.680;2024-02-21T14:19:45;14.27;;;8.43;;
7875;SDS011;69649;53.712;9.680;2024-02-21T14:22:11;16.93;;;9.50;;
7875;SDS011;69649;53.712;9.680;2024-02-21T14:24:37;17.30;;;9.03;;
7875;SDS011;69649;53.712;9.680;2024-02-21T14:27:03;12.00;;;7.80;;
7875;SDS011;69649;53.712;9.680;2024-02-21T14:29:29;13.27;;;7.73;;
7875;SDS011;69649;53.712;9.680;2024-02-21T14:31:55;15.03;;;8.30;;
7875;SDS011;69649;53.712;9.680;2024-02-21T14:34:21;12.67;;;7.90;;
7875;SDS011;69649;53.712;9.680;2024-02-21T14:36:47;20.90;;;9.70;;
7875;SDS011;69649;53.712;9.680;2024-02-21T14:39:14;14.10;;;7.87;;
7875;SDS011;69649;53.712;9.680;2024-02-21T14:41:39;18.57;;;8.73;;
7875;SDS011;69649;53.712;9.680;2024-02-21T14:44:05;16.23;;;7.90;;
7875;SDS011;69649;53.712;9.680;2024-02-21T14:46:31;13.40;;;8.70;;
7875;SDS011;69649;53.712;9.680;2024-02-21T14:48:58;17.90;;;8.03;;
7875;SDS011;69649;53.712;9.680;2024-02-21T14:51:23;15.30;;;6.93;;
7875;SDS011;69649;53.712;9.680;2024-02-21T14:53:49;13.30;;;8.37;;